Time;durP1;ratioP1;P1;durP2;ratioP2;P2;SDS_P1;SDS_P2;PMS_P1;PMS_P2;Temp;Humidity;BMP_temperature;BMP_pressure;BME280_temperature;BME280_humidity;BME280_pressure;Samples;Min_cycle;Max_cycle;Signal;HPM_P1;HPM_P2
2023/01/07 00:01:25;;;;;;;4.65;3.50;;;;;;;;;;4955117;28;20238;-66
2023/01/07 00:03:51;;;;;;;5.43;4.15;;;;;;;;;;4956309;28;20305;-65
2023/01/07 00:06:17;;;;;;;4.50;3.80;;;;;;;;;;4948070;28;20643;-66
2023/01/07 00:08:43;;;;;;;5.07;3.85;;;;;;;;;;4936297;29;20219;-66
2023/01/07 00:11:09;;;;;;;6.03;4.60;;;;;;;;;;4936682;29;20562;-66
2023/01/07 00:13:34;;;;;;;4.70;3.97;;;;;;;;;;4936878;29;20631;-66
2023/01/07 00:16:00;;;;;;;5.40;4.35;;;;;;;;;;4936229;29;20219;-66
2023/01/07 00:18:26;;;;;;;5.38;4.03;;;;;;;;;;4936665;29;20572;-66
2023/01/07 00:20:51;;;;;;;4.72;4.03;;;;;;;;;;4936729;29;20290;-66
2023/01/07 00:23:16;;;;;;;4.55;3.50;;;;;;;;;;4935499;29;20227;-66
2023/01/07 00:25:42;;;;;;;4.72;3.83;;;;;;;;;;4936994;29;20244;-66
2023/01/07 00:28:07;;;;;;;4.32;3.90;;;;;;;;;;4938548;28;21920;-67
2023/01/07 00:30:32;;;;;;;5.32;3.90;;;;;;;;;;4955094;29;20265;-66
2023/01/07 00:33:03;;;;;;;4.60;3.72;;;;;;;;;;4955746;29;20214;-66
2023/01/07 00:35:36;;;;;;;3.58;3.28;;;;;;;;;;4955127;28;20230;-66
2023/01/07 00:38:02;;;;;;;4.28;3.78;;;;;;;;;;4954321;29;20258;-66
2023/01/07 00:40:27;;;;;;;4.18;3.65;;;;;;;;;;4953757;29;20298;-66
2023/01/07 00:42:53;;;;;;;4.93;3.80;;;;;;;;;;4918507;29;20227;-66
2023/01/07 00:45:19;;;;;;;5.25;3.75;;;;;;;;;;4935834;29;20210;-66
2023/01/07 00:47:45;;;;;;;4.45;4.00;;;;;;;;;;4936467;29;20219;-66
2023/01/07 00:50:10;;;;;;;4.55;3.75;;;;;;;;;;4934864;29;20207;-66
2023/01/07 00:52:35;;;;;;;4.80;3.95;;;;;;;;;;4951747;28;20217;-66
2023/01/07 00:55:01;;;;;;;5.28;3.67;;;;;;;;;;4954947;28;20745;-66
2023/01/07 00:57:26;;;;;;;4.38;3.92;;;;;;;;;;4954651;28;20326;-66
2023/01/07 00:59:51;;;;;;;5.28;3.58;;;;;;;;;;4955208;28;20768;-65
2023/01/07 01:02:16;;;;;;;4.15;3.55;;;;;;;;;;4954758;28;20218;-65
2023/01/07 01:04:42;;;;;;;4.93;3.90;;;;;;;;;;4954417;28;20215;-65
2023/01/07 01:07:07;;;;;;;5.05;3.42;;;;;;;;;;4940132;28;20274;-65
2023/01/07 01:09:32;;;;;;;4.75;3.80;;;;;;;;;;4935997;29;20226;-65
2023/01/07 01:11:58;;;;;;;5.50;3.90;;;;;;;;;;4935208;29;20230;-66
2023/01/07 01:14:23;;;;;;;4.35;3.45;;;;;;;;;;4935250;29;20348;-66
2023/01/07 01:16:48;;;;;;;4.00;3.40;;;;;;;;;;4936035;29;20580;-65
2023/01/07 01:19:14;;;;;;;4.32;3.25;;;;;;;;;;4934616;29;20297;-66
2023/01/07 01:21:39;;;;;;;4.75;3.40;;;;;;;;;;4935628;29;20710;-66
2023/01/07 01:24:05;;;;;;;4.32;3.47;;;;;;;;;;4935268;29;20358;-66
2023/01/07 01:26:30;;;;;;;4.30;3.50;;;;;;;;;;4935180;29;20329;-66
2023/01/07 01:28:56;;;;;;;5.25;3.55;;;;;;;;;;4944252;28;20302;-65
2023/01/07 01:31:21;;;;;;;3.83;3.28;;;;;;;;;;4954160;29;20285;-65
2023/01/07 01:33:47;;;;;;;4.38;3.22;;;;;;;;;;4953967;29;20627;-66
2023/01/07 01:36:12;;;;;;;4.22;3.22;;;;;;;;;;4953950;28;20230;-65
2023/01/07 01:38:37;;;;;;;4.40;3.13;;;;;;;;;;4954507;29;20632;-65
2023/01/07 01:41:03;;;;;;;4.72;3.20;;;;;;;;;;4946997;29;20279;-66
2023/01/07 01:43:29;;;;;;;4.85;3.05;;;;;;;;;;4935434;29;20222;-66
2023/01/07 01:45:55;;;;;;;3.92;3.10;;;;;;;;;;4935246;29;20211;-65
2023/01/07 01:48:20;;;;;;;4.55;2.90;;;;;;;;;;4933975;29;20230;-66
2023/01/07 01:50:45;;;;;;;4.70;3.20;;;;;;;;;;4936246;29;20246;-66
2023/01/07 01:53:13;;;;;;;4.82;3.20;;;;;;;;;;4953232;28;20211;-65
2023/01/07 01:55:41;;;;;;;3.30;2.80;;;;;;;;;;4954440;28;20217;-65
2023/01/07 01:58:07;;;;;;;4.50;2.80;;;;;;;;;;4936829;28;20707;-65
2023/01/07 02:00:32;;;;;;;4.25;3.00;;;;;;;;;;4953562;28;20305;-65
2023/01/07 02:02:57;;;;;;;3.70;2.60;;;;;;;;;;4954376;28;20233;-65
2023/01/07 02:05:24;;;;;;;3.95;2.60;;;;;;;;;;4953113;28;20677;-65
2023/01/07 02:07:50;;;;;;;3.33;2.53;;;;;;;;;;4934352;29;20302;-65
2023/01/07 02:10:16;;;;;;;4.93;2.67;;;;;;;;;;4934634;29;20350;-66
2023/01/07 02:12:45;;;;;;;4.82;2.58;;;;;;;;;;4935253;29;20230;-65
2023/01/07 02:15:11;;;;;;;3.38;2.58;;;;;;;;;;4916658;29;20701;-65
2023/01/07 02:17:43;;;;;;;4.28;2.78;;;;;;;;;;4935238;29;20226;-65
2023/01/07 02:20:08;;;;;;;3.45;2.53;;;;;;;;;;4934341;29;20269;-65
2023/01/07 02:22:41;;;;;;;3.58;2.65;;;;;;;;;;4934447;29;20266;-65
2023/01/07 02:25:28;;;;;;;3.60;2.45;;;;;;;;;;4917340;29;20223;-65
2023/01/07 02:27:59;;;;;;;3.25;2.35;;;;;;;;;;4918767;29;20219;-65
2023/01/07 02:30:37;;;;;;;3.53;2.63;;;;;;;;;;4935467;29;20222;-65
2023/01/07 02:33:11;;;;;;;3.55;2.80;;;;;;;;;;4936674;29;20252;-65
2023/01/07 02:35:49;;;;;;;5.53;3.25;;;;;;;;;;4959456;28;20728;-65
2023/01/07 02:38:30;;;;;;;4.28;3.00;;;;;;;;;;4972916;28;20240;-65
2023/01/07 02:40:58;;;;;;;5.13;3.92;;;;;;;;;;4967718;28;20701;-65
2023/01/07 02:43:32;;;;;;;4.78;3.78;;;;;;;;;;4953001;28;20227;-65
2023/01/07 02:46:00;;;;;;;5.43;3.67;;;;;;;;;;4953861;28;20245;-65
2023/01/07 02:48:26;;;;;;;6.13;3.70;;;;;;;;;;4953808;28;20223;-65
2023/01/07 02:50:51;;;;;;;4.65;3.20;;;;;;;;;;4953810;28;20323;-65
2023/01/07 02:53:17;;;;;;;4.43;3.50;;;;;;;;;;4972763;28;20261;-65
2023/01/07 02:55:47;;;;;;;4.32;3.55;;;;;;;;;;4955632;28;20292;-65
2023/01/07 02:58:19;;;;;;;3.90;2.95;;;;;;;;;;4941355;28;20211;-65
2023/01/07 03:00:49;;;;;;;4.05;3.08;;;;;;;;;;4952288;28;20237;-65
2023/01/07 03:03:33;;;;;;;7.18;3.03;;;;;;;;;;4953398;28;20221;-67
2023/01/07 03:06:13;;;;;;;3.75;2.70;;;;;;;;;;4953659;28;20275;-65
2023/01/07 03:08:47;;;;;;;4.25;2.80;;;;;;;;;;4959913;28;20222;-65
2023/01/07 03:11:13;;;;;;;3.80;2.60;;;;;;;;;;4961895;28;20221;-65
2023/01/07 03:13:41;;;;;;;4.28;2.50;;;;;;;;;;4946294;28;20334;-65
2023/01/07 03:16:08;;;;;;;3.85;2.45;;;;;;;;;;4964586;28;20221;-65
2023/01/07 03:18:36;;;;;;;4.38;2.60;;;;;;;;;;4965758;28;20251;-65
2023/01/07 03:21:03;;;;;;;3.72;2.55;;;;;;;;;;4961521;28;20229;-65
2023/01/07 03:23:28;;;;;;;4.10;2.50;;;;;;;;;;4944255;28;20238;-66
2023/01/07 03:25:54;;;;;;;4.55;2.35;;;;;;;;;;4943210;28;20221;-65
2023/01/07 03:28:20;;;;;;;3.15;2.25;;;;;;;;;;4956786;28;20236;-65
2023/01/07 03:30:45;;;;;;;4.07;2.63;;;;;;;;;;4942746;28;20241;-65
2023/01/07 03:33:12;;;;;;;4.55;2.42;;;;;;;;;;4963625;28;20682;-65
2023/01/07 03:35:37;;;;;;;3.83;2.33;;;;;;;;;;4963919;28;20226;-65
2023/01/07 03:38:03;;;;;;;3.08;2.10;;;;;;;;;;4945554;28;20259;-66
2023/01/07 03:40:28;;;;;;;2.38;1.88;;;;;;;;;;4959037;28;20229;-65
2023/01/07 03:42:53;;;;;;;3.67;2.05;;;;;;;;;;4948483;28;20213;-65
2023/01/07 03:45:20;;;;;;;3.05;2.10;;;;;;;;;;4952180;28;20217;-65
2023/01/07 03:47:46;;;;;;;3.72;2.05;;;;;;;;;;4958697;28;20367;-65
2023/01/07 03:50:11;;;;;;;3.63;2.20;;;;;;;;;;4957387;28;20926;-65
2023/01/07 03:52:37;;;;;;;3.95;2.42;;;;;;;;;;4942854;28;20229;-65
2023/01/07 03:55:03;;;;;;;3.15;2.38;;;;;;;;;;4948780;28;20747;-65
2023/01/07 03:57:29;;;;;;;3.00;2.20;;;;;;;;;;4965554;28;20222;-65
2023/01/07 03:59:54;;;;;;;3.60;2.10;;;;;;;;;;4957541;28;20226;-65
2023/01/07 04:02:20;;;;;;;3.08;1.90;;;;;;;;;;4952922;28;20304;-65
2023/01/07 04:04:45;;;;;;;3.17;2.20;;;;;;;;;;4964135;28;20696;-65
2023/01/07 04:07:10;;;;;;;3.10;2.05;;;;;;;;;;4949915;28;20306;-66
2023/01/07 04:09:36;;;;;;;3.20;2.00;;;;;;;;;;4952318;28;20569;-65
2023/01/07 04:12:01;;;;;;;2.60;2.05;;;;;;;;;;4946939;28;20264;-65
2023/01/07 04:14:26;;;;;;;2.55;1.98;;;;;;;;;;4957216;28;20243;-65
2023/01/07 04:16:52;;;;;;;3.15;1.98;;;;;;;;;;4961268;28;21032;-65
2023/01/07 04:19:17;;;;;;;3.22;2.10;;;;;;;;;;4965338;28;20257;-65
2023/01/07 04:21:42;;;;;;;3.28;1.90;;;;;;;;;;4964758;28;20416;-65
2023/01/07 04:24:08;;;;;;;4.15;2.10;;;;;;;;;;4965252;28;20685;-65
2023/01/07 04:26:33;;;;;;;3.47;2.00;;;;;;;;;;4964275;28;20553;-66
2023/01/07 04:28:58;;;;;;;2.60;2.00;;;;;;;;;;4955560;28;20590;-65
2023/01/07 04:31:23;;;;;;;2.50;1.88;;;;;;;;;;4957273;28;20300;-65
2023/01/07 04:33:49;;;;;;;2.63;1.75;;;;;;;;;;4954410;28;20221;-65
2023/01/07 04:36:14;;;;;;;2.08;1.80;;;;;;;;;;4941429;28;20286;-65
2023/01/07 04:38:39;;;;;;;3.33;1.80;;;;;;;;;;4954674;28;20574;-65
2023/01/07 04:41:05;;;;;;;5.07;2.00;;;;;;;;;;4954813;28;20246;-65
2023/01/07 04:43:30;;;;;;;2.42;1.63;;;;;;;;;;4955022;28;20229;-65
2023/01/07 04:45:55;;;;;;;4.30;1.80;;;;;;;;;;4955590;28;20211;-65
2023/01/07 04:48:21;;;;;;;2.88;2.10;;;;;;;;;;4954533;28;20272;-66
2023/01/07 04:50:46;;;;;;;3.65;2.08;;;;;;;;;;4953534;28;20274;-65
2023/01/07 04:53:12;;;;;;;3.47;1.80;;;;;;;;;;4935879;29;20298;-65
2023/01/07 04:55:37;;;;;;;2.95;1.73;;;;;;;;;;4936340;29;20231;-65
2023/01/07 04:58:02;;;;;;;4.80;1.88;;;;;;;;;;4934925;29;20222;-65
2023/01/07 05:00:28;;;;;;;3.10;2.00;;;;;;;;;;4936041;29;20223;-65
2023/01/07 05:02:53;;;;;;;2.92;1.95;;;;;;;;;;4935255;29;20219;-65
2023/01/07 05:05:18;;;;;;;3.22;1.83;;;;;;;;;;4934910;29;20219;-65
2023/01/07 05:07:44;;;;;;;2.92;1.73;;;;;;;;;;4955070;28;20226;-65
2023/01/07 05:10:09;;;;;;;2.75;1.70;;;;;;;;;;4954114;28;20223;-65
2023/01/07 05:12:34;;;;;;;4.53;2.38;;;;;;;;;;4954956;28;20576;-65
2023/01/07 05:15:00;;;;;;;2.95;1.80;;;;;;;;;;4937954;29;20625;-65
2023/01/07 05:17:26;;;;;;;3.47;1.83;;;;;;;;;;4953878;28;20297;-65
2023/01/07 05:19:51;;;;;;;2.30;1.85;;;;;;;;;;4954994;28;20219;-65
2023/01/07 05:22:17;;;;;;;2.22;1.75;;;;;;;;;;4954354;28;20664;-65
2023/01/07 05:24:42;;;;;;;3.55;2.00;;;;;;;;;;4953584;28;20261;-65
2023/01/07 05:27:07;;;;;;;2.78;1.73;;;;;;;;;;4954240;28;20254;-65
2023/01/07 05:29:33;;;;;;;2.97;1.80;;;;;;;;;;4944049;28;20242;-65
2023/01/07 05:31:58;;;;;;;2.40;1.80;;;;;;;;;;4934921;28;20302;-65
2023/01/07 05:34:23;;;;;;;2.92;1.75;;;;;;;;;;4942047;28;20248;-65
2023/01/07 05:36:48;;;;;;;2.17;1.80;;;;;;;;;;4973939;28;20305;-65
2023/01/07 05:39:14;;;;;;;2.78;1.70;;;;;;;;;;4972801;28;20210;-65
2023/01/07 05:41:39;;;;;;;2.65;1.70;;;;;;;;;;4966360;28;20277;-65
2023/01/07 05:44:04;;;;;;;3.20;1.88;;;;;;;;;;4956474;28;20218;-65
2023/01/07 05:46:30;;;;;;;3.72;1.77;;;;;;;;;;4972720;28;20582;-65
2023/01/07 05:48:55;;;;;;;3.20;1.80;;;;;;;;;;4973762;28;20227;-65
2023/01/07 05:51:20;;;;;;;3.60;2.08;;;;;;;;;;4973230;28;20218;-65
2023/01/07 05:53:45;;;;;;;3.33;1.90;;;;;;;;;;4973076;28;20225;-65
2023/01/07 05:56:11;;;;;;;2.33;1.70;;;;;;;;;;4973428;28;20268;-65
2023/01/07 05:58:36;;;;;;;2.13;1.67;;;;;;;;;;4973473;28;20568;-65
2023/01/07 06:01:01;;;;;;;2.28;1.58;;;;;;;;;;4972496;28;20651;-65
2023/01/07 06:03:27;;;;;;;2.70;1.70;;;;;;;;;;4973676;28;20221;-65
2023/01/07 06:05:52;;;;;;;3.75;2.00;;;;;;;;;;4969063;28;20217;-65
2023/01/07 06:08:17;;;;;;;3.45;1.75;;;;;;;;;;4953002;28;20286;-65
2023/01/07 06:10:43;;;;;;;2.10;1.70;;;;;;;;;;4954639;28;20577;-65
2023/01/07 06:13:08;;;;;;;3.13;1.70;;;;;;;;;;4953464;28;20253;-65
2023/01/07 06:15:33;;;;;;;2.55;1.77;;;;;;;;;;4953594;28;20222;-65
2023/01/07 06:17:59;;;;;;;2.03;1.60;;;;;;;;;;4954216;28;20214;-65
2023/01/07 06:20:24;;;;;;;2.80;1.80;;;;;;;;;;4939993;28;20230;-65
2023/01/07 06:22:49;;;;;;;1.67;1.40;;;;;;;;;;4943930;28;20308;-65
2023/01/07 06:25:15;;;;;;;3.90;1.90;;;;;;;;;;4960209;28;20272;-65
2023/01/07 06:27:40;;;;;;;2.47;1.50;;;;;;;;;;4956993;28;21045;-65
2023/01/07 06:30:06;;;;;;;2.03;1.60;;;;;;;;;;4945056;28;20226;-65
2023/01/07 06:32:35;;;;;;;3.15;1.80;;;;;;;;;;4961042;28;20221;-65
2023/01/07 06:35:00;;;;;;;2.42;1.50;;;;;;;;;;4955269;28;20800;-66
2023/01/07 06:37:26;;;;;;;2.33;1.50;;;;;;;;;;4928650;29;20278;-65
2023/01/07 06:39:51;;;;;;;2.72;1.50;;;;;;;;;;4920724;29;20235;-65
2023/01/07 06:42:16;;;;;;;2.97;1.58;;;;;;;;;;4923667;28;20231;-65
2023/01/07 06:44:42;;;;;;;3.40;1.60;;;;;;;;;;4926006;29;20702;-65
2023/01/07 06:47:08;;;;;;;1.52;1.33;;;;;;;;;;4939617;28;20234;-65
2023/01/07 06:49:33;;;;;;;1.92;1.35;;;;;;;;;;4930484;29;20262;-65
2023/01/07 06:51:59;;;;;;;3.08;1.80;;;;;;;;;;4942727;28;20257;-65
2023/01/07 06:54:24;;;;;;;2.80;1.83;;;;;;;;;;4932291;28;20582;-65
2023/01/07 06:56:49;;;;;;;2.42;1.35;;;;;;;;;;4928521;29;20227;-65
2023/01/07 06:59:15;;;;;;;1.83;1.30;;;;;;;;;;4941229;28;20219;-65
2023/01/07 07:01:40;;;;;;;3.97;1.42;;;;;;;;;;4940276;28;20317;-65
2023/01/07 07:04:05;;;;;;;2.13;1.52;;;;;;;;;;4949717;28;20214;-65
2023/01/07 07:06:31;;;;;;;3.55;1.40;;;;;;;;;;4956602;28;20250;-64
2023/01/07 07:08:56;;;;;;;1.85;1.25;;;;;;;;;;4956345;28;20252;-65
2023/01/07 07:11:22;;;;;;;2.97;1.30;;;;;;;;;;4954803;28;20233;-65
2023/01/07 07:13:47;;;;;;;2.78;1.27;;;;;;;;;;4955881;28;20202;-65
2023/01/07 07:16:12;;;;;;;2.70;1.50;;;;;;;;;;4956074;28;20841;-64
2023/01/07 07:18:37;;;;;;;1.90;1.30;;;;;;;;;;4956453;28;20377;-64
2023/01/07 07:21:03;;;;;;;2.78;1.40;;;;;;;;;;4956079;28;20442;-65
2023/01/07 07:23:28;;;;;;;1.60;1.20;;;;;;;;;;4956048;28;20305;-65
2023/01/07 07:25:53;;;;;;;1.65;1.10;;;;;;;;;;4950946;28;20315;-64
2023/01/07 07:28:19;;;;;;;2.25;1.10;;;;;;;;;;4956090;28;20210;-64
2023/01/07 07:30:44;;;;;;;2.47;1.40;;;;;;;;;;4955817;28;20214;-65
2023/01/07 07:33:11;;;;;;;1.48;1.02;;;;;;;;;;4956064;28;20274;-65
2023/01/07 07:35:36;;;;;;;2.10;1.33;;;;;;;;;;4956445;28;20226;-65
2023/01/07 07:38:02;;;;;;;1.70;1.00;;;;;;;;;;4937553;28;20206;-66
2023/01/07 07:40:27;;;;;;;3.15;1.67;;;;;;;;;;4956122;28;20233;-65
2023/01/07 07:42:53;;;;;;;2.35;1.10;;;;;;;;;;4956261;28;20203;-65
2023/01/07 07:45:18;;;;;;;6.25;1.48;;;;;;;;;;4954947;28;20213;-65
2023/01/07 07:47:44;;;;;;;1.75;1.10;;;;;;;;;;4955591;28;20686;-65
2023/01/07 07:50:09;;;;;;;2.60;1.17;;;;;;;;;;4956030;28;20207;-65
2023/01/07 07:52:34;;;;;;;2.30;1.10;;;;;;;;;;4955068;28;20218;-65
2023/01/07 07:55:00;;;;;;;2.38;1.10;;;;;;;;;;4955667;28;20296;-65
2023/01/07 07:57:25;;;;;;;2.40;1.17;;;;;;;;;;4955395;28;20571;-66
2023/01/07 07:59:50;;;;;;;1.17;1.08;;;;;;;;;;4955393;28;20210;-65
2023/01/07 08:02:18;;;;;;;2.97;1.00;;;;;;;;;;4955586;28;20250;-66
2023/01/07 08:04:43;;;;;;;2.35;1.10;;;;;;;;;;4956288;28;20285;-66
2023/01/07 08:07:09;;;;;;;2.53;1.30;;;;;;;;;;4946213;28;20309;-65
2023/01/07 08:09:34;;;;;;;2.97;1.20;;;;;;;;;;4939025;29;20217;-66
2023/01/07 08:11:59;;;;;;;1.48;1.05;;;;;;;;;;4956179;28;20241;-69
2023/01/07 08:14:25;;;;;;;1.88;1.00;;;;;;;;;;4939972;28;20577;-68
2023/01/07 08:16:50;;;;;;;2.45;1.00;;;;;;;;;;4955110;28;20210;-66
2023/01/07 08:19:15;;;;;;;2.92;1.23;;;;;;;;;;4955340;28;20232;-68
2023/01/07 08:21:40;;;;;;;1.45;1.10;;;;;;;;;;4954860;28;20222;-68
2023/01/07 08:24:06;;;;;;;1.80;1.00;;;;;;;;;;4954529;28;20206;-68
2023/01/07 08:26:31;;;;;;;1.08;0.90;;;;;;;;;;4955375;28;20218;-68
2023/01/07 08:28:57;;;;;;;2.17;0.95;;;;;;;;;;4954414;28;20221;-69
2023/01/07 08:31:22;;;;;;;1.15;0.80;;;;;;;;;;4954923;28;20286;-69
2023/01/07 08:33:47;;;;;;;1.45;0.90;;;;;;;;;;4955514;28;20206;-68
2023/01/07 08:36:12;;;;;;;1.15;0.90;;;;;;;;;;4953888;28;20230;-69
2023/01/07 08:38:38;;;;;;;2.08;0.80;;;;;;;;;;4955012;28;20265;-68
2023/01/07 08:41:03;;;;;;;1.58;0.80;;;;;;;;;;4953666;28;20222;-66
2023/01/07 08:43:29;;;;;;;1.63;0.90;;;;;;;;;;4954925;28;20693;-68
2023/01/07 08:45:54;;;;;;;2.65;0.77;;;;;;;;;;4955401;28;20222;-67
2023/01/07 08:48:20;;;;;;;1.70;0.70;;;;;;;;;;4953713;28;20214;-66
2023/01/07 08:50:51;;;;;;;2.35;0.85;;;;;;;;;;4953182;28;20206;-67
2023/01/07 08:53:18;;;;;;;1.70;0.90;;;;;;;;;;4937389;28;20622;-67
2023/01/07 08:55:44;;;;;;;1.67;0.88;;;;;;;;;;4954771;28;20579;-66
2023/01/07 08:58:09;;;;;;;2.45;0.90;;;;;;;;;;4953374;28;20681;-66
2023/01/07 09:00:34;;;;;;;1.20;1.10;;;;;;;;;;4954748;28;20226;-67
2023/01/07 09:03:01;;;;;;;1.75;0.90;;;;;;;;;;4952747;28;20209;-66
2023/01/07 09:05:26;;;;;;;2.47;0.98;;;;;;;;;;4954145;28;20284;-67
2023/01/07 09:07:52;;;;;;;0.98;0.82;;;;;;;;;;4953653;28;20690;-67
2023/01/07 09:10:17;;;;;;;1.92;0.82;;;;;;;;;;4953181;28;20206;-68
2023/01/07 09:12:42;;;;;;;0.85;0.75;;;;;;;;;;4936784;29;20293;-68
2023/01/07 09:15:08;;;;;;;1.50;1.05;;;;;;;;;;4951120;28;20238;-69
2023/01/07 09:17:33;;;;;;;1.48;0.90;;;;;;;;;;4934342;29;20215;-69
2023/01/07 09:20:02;;;;;;;1.75;1.50;;;;;;;;;;4935797;29;20219;-68
2023/01/07 09:22:27;;;;;;;1.92;1.00;;;;;;;;;;4935137;29;20710;-69
2023/01/07 09:24:53;;;;;;;1.85;0.90;;;;;;;;;;4934871;29;20251;-68
2023/01/07 09:27:18;;;;;;;2.70;1.10;;;;;;;;;;4935152;29;20237;-68
2023/01/07 09:29:43;;;;;;;2.20;1.30;;;;;;;;;;4935785;29;20215;-69
2023/01/07 09:32:09;;;;;;;3.25;1.50;;;;;;;;;;4934264;29;20311;-69
2023/01/07 09:34:34;;;;;;;3.88;2.30;;;;;;;;;;4935435;29;20235;-69
2023/01/07 09:37:00;;;;;;;1.23;0.70;;;;;;;;;;4935318;29;20226;-69
2023/01/07 09:39:25;;;;;;;1.42;1.15;;;;;;;;;;4934134;29;20271;-69
2023/01/07 09:42:01;;;;;;;1.80;1.15;;;;;;;;;;4947936;28;20888;-69
2023/01/07 09:44:32;;;;;;;1.80;0.88;;;;;;;;;;4936592;29;20583;-69
2023/01/07 09:46:57;;;;;;;1.27;1.00;;;;;;;;;;4937417;29;20221;-69
2023/01/07 09:49:24;;;;;;;4.32;2.70;;;;;;;;;;4936911;28;20222;-69
2023/01/07 09:51:51;;;;;;;2.70;1.95;;;;;;;;;;4953312;28;20249;-69
2023/01/07 09:54:20;;;;;;;1.80;0.90;;;;;;;;;;4953855;28;20218;-69
2023/01/07 09:56:45;;;;;;;1.55;0.95;;;;;;;;;;4937358;29;20234;-69
2023/01/07 09:59:11;;;;;;;2.47;1.20;;;;;;;;;;4936216;28;20257;-68
2023/01/07 10:01:44;;;;;;;2.70;1.80;;;;;;;;;;4937046;29;20260;-68
2023/01/07 10:04:19;;;;;;;3.83;1.85;;;;;;;;;;4936633;28;20210;-68
2023/01/07 10:06:48;;;;;;;4.00;2.83;;;;;;;;;;4942029;28;20229;-69
2023/01/07 10:09:18;;;;;;;1.23;0.70;;;;;;;;;;4917334;29;20215;-68
2023/01/07 10:11:48;;;;;;;1.98;0.80;;;;;;;;;;4935168;29;20243;-69
2023/01/07 10:14:25;;;;;;;1.30;0.68;;;;;;;;;;4918802;28;20582;-68
2023/01/07 10:16:53;;;;;;;1.33;0.80;;;;;;;;;;4937011;29;20213;-68
2023/01/07 10:19:28;;;;;;;2.25;0.70;;;;;;;;;;4936462;29;20688;-68
2023/01/07 10:21:55;;;;;;;2.03;0.90;;;;;;;;;;4953769;29;20304;-68
2023/01/07 10:24:23;;;;;;;2.55;1.00;;;;;;;;;;4953662;29;20274;-68
2023/01/07 10:26:50;;;;;;;1.08;0.80;;;;;;;;;;4953270;29;20231;-69
2023/01/07 10:29:17;;;;;;;1.83;0.80;;;;;;;;;;4953520;29;20222;-68
2023/01/07 10:31:42;;;;;;;1.00;0.82;;;;;;;;;;4954050;29;20242;-68
2023/01/07 10:34:11;;;;;;;1.55;0.73;;;;;;;;;;4935371;28;20317;-69
2023/01/07 10:36:38;;;;;;;1.25;0.80;;;;;;;;;;4936499;29;20230;-69
2023/01/07 10:39:22;;;;;;;1.92;0.82;;;;;;;;;;4936503;29;20248;-69
2023/01/07 10:41:55;;;;;;;1.92;0.70;;;;;;;;;;4940692;29;20226;-69
2023/01/07 10:44:20;;;;;;;1.38;0.80;;;;;;;;;;4934366;29;20219;-68
2023/01/07 10:46:53;;;;;;;1.10;0.60;;;;;;;;;;4934805;29;20230;-69
2023/01/07 10:49:26;;;;;;;0.82;0.70;;;;;;;;;;4933445;29;20306;-68
2023/01/07 10:51:51;;;;;;;1.67;0.50;;;;;;;;;;4944199;28;20309;-69
2023/01/07 10:54:17;;;;;;;4.18;0.75;;;;;;;;;;4953146;28;20290;-69
2023/01/07 10:56:43;;;;;;;2.03;0.80;;;;;;;;;;4952983;28;20219;-69
2023/01/07 10:59:12;;;;;;;1.15;0.70;;;;;;;;;;4936298;28;20218;-69
2023/01/07 11:01:38;;;;;;;1.10;0.70;;;;;;;;;;4936225;29;20230;-69
2023/01/07 11:04:03;;;;;;;1.13;0.70;;;;;;;;;;4936020;28;20237;-69
2023/01/07 11:06:47;;;;;;;0.65;0.57;;;;;;;;;;4944188;28;20253;-68
2023/01/07 11:09:14;;;;;;;1.15;0.60;;;;;;;;;;4933349;29;20226;-69
2023/01/07 11:11:39;;;;;;;1.10;0.60;;;;;;;;;;4917500;29;20212;-69
2023/01/07 11:14:09;;;;;;;0.50;0.50;;;;;;;;;;4934782;28;20223;-69
2023/01/07 11:16:36;;;;;;;0.65;0.60;;;;;;;;;;4952851;29;20682;-69
2023/01/07 11:19:03;;;;;;;1.55;0.70;;;;;;;;;;4953227;29;20297;-69
2023/01/07 11:21:30;;;;;;;1.63;0.60;;;;;;;;;;4953801;28;20724;-69
2023/01/07 11:23:55;;;;;;;1.48;0.60;;;;;;;;;;4939289;29;20579;-69
2023/01/07 11:26:23;;;;;;;0.95;0.50;;;;;;;;;;4956246;29;20221;-69
2023/01/07 11:28:55;;;;;;;0.63;0.50;;;;;;;;;;4956943;29;20229;-69
2023/01/07 11:31:22;;;;;;;1.10;0.70;;;;;;;;;;4938532;29;20579;-69
2023/01/07 11:33:49;;;;;;;1.05;0.65;;;;;;;;;;4956994;29;20210;-69
2023/01/07 11:36:14;;;;;;;1.33;0.70;;;;;;;;;;4955839;28;20230;-69
2023/01/07 11:38:39;;;;;;;1.58;0.57;;;;;;;;;;4955983;29;20214;-69
2023/01/07 11:41:06;;;;;;;1.17;0.57;;;;;;;;;;4949374;29;20242;-69
2023/01/07 11:43:32;;;;;;;0.93;0.40;;;;;;;;;;4920691;29;20219;-69
2023/01/07 11:45:59;;;;;;;0.70;0.50;;;;;;;;;;4919700;29;20258;-69
2023/01/07 11:48:27;;;;;;;0.70;0.52;;;;;;;;;;4937040;29;20218;-69
2023/01/07 11:50:52;;;;;;;0.98;0.57;;;;;;;;;;4938908;29;20306;-68
2023/01/07 11:53:18;;;;;;;0.80;0.50;;;;;;;;;;4955874;28;20301;-68
2023/01/07 11:55:54;;;;;;;0.98;0.57;;;;;;;;;;4956360;28;20558;-68
2023/01/07 11:58:20;;;;;;;0.93;0.60;;;;;;;;;;4938032;28;20277;-67
2023/01/07 12:00:45;;;;;;;1.67;0.50;;;;;;;;;;4956489;28;20601;-68
2023/01/07 12:03:11;;;;;;;0.60;0.50;;;;;;;;;;4955846;28;20281;-67
2023/01/07 12:05:37;;;;;;;0.68;0.52;;;;;;;;;;4953160;28;20297;-67
2023/01/07 12:08:03;;;;;;;0.80;0.50;;;;;;;;;;4936663;29;20336;-67
2023/01/07 12:10:31;;;;;;;0.95;0.80;;;;;;;;;;4937095;29;20588;-68
2023/01/07 12:12:57;;;;;;;1.42;0.57;;;;;;;;;;4936221;29;20553;-69
2023/01/07 12:15:25;;;;;;;0.90;0.40;;;;;;;;;;4947264;28;20213;-69
2023/01/07 12:17:55;;;;;;;0.68;0.50;;;;;;;;;;4938935;29;20701;-68
2023/01/07 12:20:30;;;;;;;0.70;0.50;;;;;;;;;;4937695;29;20226;-68
2023/01/07 12:23:12;;;;;;;1.42;0.60;;;;;;;;;;4938691;29;20222;-68
2023/01/07 12:25:47;;;;;;;1.08;0.55;;;;;;;;;;4938605;29;20222;-69
2023/01/07 12:28:13;;;;;;;1.02;0.60;;;;;;;;;;4954214;29;20677;-69
2023/01/07 12:30:41;;;;;;;0.80;0.50;;;;;;;;;;4938892;29;20214;-69
2023/01/07 12:33:11;;;;;;;0.70;0.55;;;;;;;;;;4937075;29;20214;-68
2023/01/07 12:35:38;;;;;;;0.77;0.63;;;;;;;;;;4961599;28;20225;-68
2023/01/07 12:38:05;;;;;;;1.05;0.60;;;;;;;;;;4974447;28;20236;-68
2023/01/07 12:40:35;;;;;;;0.40;0.40;;;;;;;;;;4972179;28;20221;-68
2023/01/07 12:43:07;;;;;;;0.73;0.50;;;;;;;;;;4953802;28;20222;-68
2023/01/07 12:45:37;;;;;;;1.60;0.70;;;;;;;;;;4954549;28;20268;-69
2023/01/07 12:48:03;;;;;;;0.88;0.60;;;;;;;;;;4953214;28;20261;-69
2023/01/07 12:50:37;;;;;;;1.05;0.60;;;;;;;;;;4955802;28;20238;-68
2023/01/07 12:53:04;;;;;;;1.17;0.50;;;;;;;;;;4954888;28;20217;-69
2023/01/07 12:55:32;;;;;;;0.68;0.50;;;;;;;;;;4954949;28;20245;-68
2023/01/07 12:58:00;;;;;;;1.40;0.70;;;;;;;;;;4955512;28;20226;-68
2023/01/07 13:00:26;;;;;;;0.98;0.60;;;;;;;;;;4969989;28;20218;-69
2023/01/07 13:02:54;;;;;;;0.80;0.80;;;;;;;;;;4969483;28;20226;-69
2023/01/07 13:05:20;;;;;;;0.70;0.70;;;;;;;;;;4954928;28;20210;-68
2023/01/07 13:07:58;;;;;;;0.85;0.73;;;;;;;;;;4955040;28;20225;-68
2023/01/07 13:10:24;;;;;;;1.60;0.70;;;;;;;;;;4954045;28;20214;-68
2023/01/07 13:12:51;;;;;;;0.70;0.60;;;;;;;;;;4953849;29;20215;-68
2023/01/07 13:15:25;;;;;;;0.65;0.60;;;;;;;;;;4963068;28;20276;-68
2023/01/07 13:17:52;;;;;;;1.00;0.90;;;;;;;;;;4974260;28;20590;-68
2023/01/07 13:20:20;;;;;;;0.70;0.70;;;;;;;;;;4974008;28;20216;-68
2023/01/07 13:22:47;;;;;;;1.30;0.80;;;;;;;;;;4972032;28;20214;-68
2023/01/07 13:25:17;;;;;;;0.90;0.80;;;;;;;;;;4973964;28;20206;-69
2023/01/07 13:27:53;;;;;;;0.65;0.60;;;;;;;;;;4972883;28;20251;-68
2023/01/07 13:30:27;;;;;;;0.70;0.70;;;;;;;;;;4971563;28;20221;-68
2023/01/07 13:32:55;;;;;;;0.93;0.73;;;;;;;;;;4955537;28;20218;-68
2023/01/07 13:35:33;;;;;;;1.10;0.90;;;;;;;;;;4956433;28;20699;-68
2023/01/07 13:38:04;;;;;;;1.38;0.90;;;;;;;;;;4965652;28;20225;-68
2023/01/07 13:40:44;;;;;;;1.40;0.82;;;;;;;;;;4965336;28;20258;-68
2023/01/07 13:43:17;;;;;;;1.02;0.93;;;;;;;;;;4949231;28;20220;-68
2023/01/07 13:45:42;;;;;;;1.17;0.90;;;;;;;;;;4961589;28;20230;-68
2023/01/07 13:48:19;;;;;;;1.35;0.98;;;;;;;;;;4962378;28;20550;-68
2023/01/07 13:50:54;;;;;;;1.30;0.90;;;;;;;;;;4960669;28;21088;-68
2023/01/07 13:53:19;;;;;;;2.08;0.90;;;;;;;;;;4948295;28;20218;-68
2023/01/07 13:55:45;;;;;;;1.80;1.10;;;;;;;;;;4948647;28;20740;-68
2023/01/07 13:58:29;;;;;;;1.30;1.00;;;;;;;;;;4947941;28;20632;-68
2023/01/07 14:01:03;;;;;;;1.33;1.13;;;;;;;;;;4948559;28;20238;-68
2023/01/07 14:03:30;;;;;;;1.30;1.13;;;;;;;;;;4948368;28;20699;-68
2023/01/07 14:06:14;;;;;;;1.45;1.13;;;;;;;;;;4963909;28;20209;-68
2023/01/07 14:08:40;;;;;;;1.73;1.05;;;;;;;;;;4948476;28;20253;-68
2023/01/07 14:11:05;;;;;;;1.58;1.20;;;;;;;;;;4948647;28;20226;-68
2023/01/07 14:13:32;;;;;;;1.40;1.20;;;;;;;;;;4948175;28;20280;-68
2023/01/07 14:16:00;;;;;;;1.30;1.20;;;;;;;;;;4953922;28;20218;-68
2023/01/07 14:18:34;;;;;;;1.25;1.15;;;;;;;;;;4965909;28;21200;-68
2023/01/07 14:21:05;;;;;;;1.50;1.35;;;;;;;;;;4966842;28;20232;-68
2023/01/07 14:23:38;;;;;;;1.50;1.40;;;;;;;;;;4966776;28;20277;-68
2023/01/07 14:26:07;;;;;;;1.55;1.45;;;;;;;;;;4966342;28;20221;-68
2023/01/07 14:28:32;;;;;;;2.20;1.70;;;;;;;;;;4967071;28;20225;-68
2023/01/07 14:30:58;;;;;;;1.85;1.70;;;;;;;;;;4966941;28;20276;-68
2023/01/07 14:33:28;;;;;;;1.50;1.38;;;;;;;;;;4970934;28;20218;-68
2023/01/07 14:35:58;;;;;;;2.90;1.55;;;;;;;;;;4960204;28;20280;-68
2023/01/07 14:38:30;;;;;;;1.73;1.50;;;;;;;;;;4955504;28;20230;-66
2023/01/07 14:41:01;;;;;;;3.08;1.90;;;;;;;;;;4971974;28;20213;-66
2023/01/07 14:43:39;;;;;;;2.63;1.70;;;;;;;;;;4972829;28;20210;-66